createdAt,value
2023-10-05T00:00:41.694Z,72.62
2023-10-05T00:01:57.503Z,72.74
2023-10-05T00:03:00.148Z,72.46
2023-10-05T00:04:02.992Z,72.13
2023-10-05T00:05:06.295Z,72.28
2023-10-05T00:06:15.469Z,72.74
2023-10-05T00:07:28.725Z,72.71
2023-10-05T00:08:32.981Z,72.97
2023-10-05T00:09:35.644Z,73.41
2023-10-05T00:10:38.340Z,74.08
2023-10-05T00:11:41.143Z,73.48
2023-10-05T00:12:43.734Z,73.91
2023-10-05T00:13:46.292Z,73.90
2023-10-05T00:15:17.270Z,74.18
2023-10-05T00:16:23.730Z,74.69
2023-10-05T00:17:27.536Z,74.51
2023-10-05T00:18:30.105Z,74.64
2023-10-05T00:19:36.571Z,74.70
2023-10-05T00:20:41.605Z,74.85
2023-10-05T00:21:58.041Z,74.51
2023-10-05T00:23:04.477Z,74.40
2023-10-05T00:24:08.449Z,73.96
2023-10-05T00:25:11.616Z,74.19
2023-10-05T00:26:14.949Z,74.34
2023-10-05T00:27:21.115Z,74.69
2023-10-05T00:28:27.573Z,74.64
2023-10-05T00:29:30.573Z,74.08
2023-10-05T00:30:34.564Z,74.51
2023-10-05T00:31:40.765Z,74.76
2023-10-05T00:32:48.645Z,74.59
2023-10-05T00:33:57.347Z,75.09
2023-10-05T00:35:16.259Z,74.02
2023-10-05T00:36:19.318Z,73.96
2023-10-05T00:37:21.964Z,73.76
2023-10-05T00:38:26.101Z,74.23
2023-10-05T00:39:33.160Z,74.55
2023-10-05T00:40:40.309Z,73.73
2023-10-05T00:41:42.857Z,74.12
2023-10-05T00:42:45.471Z,74.00
2023-10-05T00:43:48.112Z,74.07
2023-10-05T00:44:50.712Z,73.83
2023-10-05T00:45:58.563Z,74.16
2023-10-05T00:47:01.744Z,74.85
2023-10-05T00:48:21.375Z,74.29
2023-10-05T00:49:29.127Z,73.83
2023-10-05T00:50:35.162Z,73.91
2023-10-05T00:51:39.989Z,74.07
2023-10-05T00:52:45.207Z,74.59
2023-10-05T00:53:48.657Z,75.25
2023-10-05T00:54:57.875Z,74.99
2023-10-05T00:56:13.243Z,74.94
2023-10-05T00:57:16.460Z,75.00
2023-10-05T00:58:19.134Z,75.11
2023-10-05T00:59:22.235Z,75.31
2023-10-05T01:00:29.271Z,75.05
2023-10-05T01:01:50.775Z,75.18
2023-10-05T01:03:23.449Z,75.44
2023-10-05T01:04:46.744Z,75.78
2023-10-05T01:06:11.961Z,75.78
2023-10-05T01:07:29.296Z,75.95
2023-10-05T01:08:33.517Z,75.58
2023-10-05T01:09:57.885Z,76.02
2023-10-05T01:11:02.999Z,76.34
2023-10-05T01:12:06.227Z,75.72
2023-10-05T01:13:33.586Z,75.99
2023-10-05T01:14:46.758Z,76.03
2023-10-05T01:15:53.874Z,75.95
2023-10-05T01:17:00.091Z,75.86
2023-10-05T01:18:04.070Z,75.60
2023-10-05T01:19:09.859Z,75.56
2023-10-05T01:20:20.610Z,75.09
2023-10-05T01:21:26.286Z,74.75
2023-10-05T01:22:40.680Z,75.34
2023-10-05T01:23:45.040Z,74.96
2023-10-05T01:24:50.024Z,75.00
2023-10-05T01:25:52.912Z,74.76
2023-10-05T01:26:55.540Z,74.49
2023-10-05T01:27:58.184Z,74.36
2023-10-05T01:29:00.856Z,74.50
2023-10-05T01:30:08.387Z,74.47
2023-10-05T01:31:22.468Z,74.44
2023-10-05T01:32:27.751Z,74.65
2023-10-05T01:33:30.783Z,74.21
2023-10-05T01:34:33.400Z,74.67
2023-10-05T01:35:39.137Z,74.28
2023-10-05T01:36:43.533Z,74.63
2023-10-05T01:37:52.296Z,74.15
2023-10-05T01:39:09.507Z,74.56
2023-10-05T01:40:21.935Z,74.15
2023-10-05T01:41:27.765Z,74.31
2023-10-05T01:42:34.404Z,73.92
2023-10-05T01:43:37.264Z,74.01
2023-10-05T01:44:48.629Z,73.80
2023-10-05T01:45:51.406Z,73.21
2023-10-05T01:46:58.966Z,73.61
2023-10-05T01:48:06.402Z,73.28
2023-10-05T01:49:09.838Z,73.44
2023-10-05T01:50:20.499Z,73.41
2023-10-05T01:51:25.248Z,73.38
2023-10-05T01:52:31.755Z,73.29
2023-10-05T01:53:34.648Z,73.40
2023-10-05T01:54:38.090Z,73.14
2023-10-05T01:55:40.819Z,72.93
2023-10-05T01:56:46.028Z,72.90
2023-10-05T01:57:49.908Z,72.64
2023-10-05T01:58:55.409Z,72.93
2023-10-05T02:00:00.323Z,72.94
2023-10-05T02:01:04.466Z,72.32
2023-10-05T02:02:17.097Z,73.36
2023-10-05T02:03:23.948Z,72.67
2023-10-05T02:04:26.586Z,72.61
2023-10-05T02:05:31.799Z,72.79
2023-10-05T02:06:43.817Z,72.15
2023-10-05T02:07:47.144Z,72.50
2023-10-05T02:08:49.968Z,72.48
2023-10-05T02:09:53.724Z,72.23
2023-10-05T02:10:56.471Z,72.75
2023-10-05T02:12:02.968Z,72.45
2023-10-05T02:13:06.533Z,72.06
2023-10-05T02:14:13.226Z,72.46
2023-10-05T02:15:17.613Z,72.37
2023-10-05T02:16:22.414Z,72.51
2023-10-05T02:17:25.178Z,71.96
2023-10-05T02:18:28.234Z,72.47
2023-10-05T02:19:31.555Z,72.29
2023-10-05T02:20:34.459Z,72.34
2023-10-05T02:21:39.670Z,72.49
2023-10-05T02:22:46.097Z,72.38
2023-10-05T02:23:52.748Z,72.66
2023-10-05T02:24:56.856Z,72.93
2023-10-05T02:26:04.748Z,73.73
2023-10-05T02:27:10.948Z,73.48
2023-10-05T02:28:24.456Z,73.95
2023-10-05T02:29:29.881Z,74.55
2023-10-05T02:30:33.352Z,74.32
2023-10-05T02:31:36.131Z,74.46
2023-10-05T02:32:40.717Z,74.54
2023-10-05T02:33:44.679Z,75.13
2023-10-05T02:35:00.347Z,75.21
2023-10-05T02:36:21.744Z,75.74
2023-10-05T02:37:25.980Z,75.37
2023-10-05T02:38:29.497Z,75.54
2023-10-05T02:39:36.406Z,75.59
2023-10-05T02:40:47.718Z,76.08
2023-10-05T02:41:52.236Z,76.00
2023-10-05T02:42:55.843Z,75.64
2023-10-05T02:43:59.554Z,75.85
2023-10-05T02:45:06.320Z,75.78
2023-10-05T02:46:13.003Z,76.28
2023-10-05T02:47:23.889Z,76.78
2023-10-05T02:48:27.087Z,77.03
2023-10-05T02:49:29.737Z,76.77
2023-10-05T02:50:33.514Z,76.54
2023-10-05T02:51:38.622Z,76.68
2023-10-05T02:52:41.610Z,76.41
2023-10-05T02:53:48.146Z,76.61
2023-10-05T02:54:51.025Z,76.81
2023-10-05T02:55:55.360Z,76.96
2023-10-05T02:56:57.925Z,76.86
2023-10-05T02:58:00.687Z,77.31
2023-10-05T02:59:08.701Z,76.99
2023-10-05T03:00:13.824Z,77.26
2023-10-05T03:01:17.218Z,76.92
2023-10-05T03:02:20.061Z,77.54
2023-10-05T03:03:22.875Z,77.14
2023-10-05T03:04:43.157Z,77.54
2023-10-05T03:05:45.913Z,77.68
2023-10-05T03:06:53.345Z,78.05
2023-10-05T03:07:57.963Z,78.07
2023-10-05T03:09:08.277Z,78.22
2023-10-05T03:10:17.484Z,78.59
2023-10-05T03:11:20.650Z,78.40
2023-10-05T03:12:24.496Z,77.98
2023-10-05T03:13:30.094Z,78.47
2023-10-05T03:14:35.194Z,78.81
2023-10-05T03:15:39.175Z,78.80
2023-10-05T03:16:45.107Z,79.17
2023-10-05T03:17:49.857Z,79.00
2023-10-05T03:18:53.215Z,80.23
2023-10-05T03:19:55.986Z,79.96
2023-10-05T03:20:59.429Z,79.70
2023-10-05T03:22:06.915Z,80.01
2023-10-05T03:23:13.210Z,80.01
2023-10-05T03:24:15.959Z,80.04
2023-10-05T03:25:18.993Z,80.45
2023-10-05T03:26:21.702Z,80.50
2023-10-05T03:27:24.318Z,80.31
2023-10-05T03:28:28.956Z,80.55
2023-10-05T03:29:36.690Z,80.43
2023-10-05T03:30:39.748Z,80.11
2023-10-05T03:31:55.122Z,80.91
2023-10-05T03:33:02.029Z,80.46
2023-10-05T03:34:09.091Z,80.00
2023-10-05T03:35:12.478Z,79.57
2023-10-05T03:36:15.669Z,79.92
2023-10-05T03:37:18.511Z,81.07
2023-10-05T03:38:23.811Z,80.52
2023-10-05T03:39:30.016Z,79.73
2023-10-05T03:40:38.903Z,80.36
2023-10-05T03:41:41.622Z,80.22
2023-10-05T03:42:47.750Z,80.26
2023-10-05T03:43:56.829Z,80.57
2023-10-05T03:45:05.435Z,80.46
2023-10-05T03:46:08.790Z,81.00
2023-10-05T03:47:12.922Z,81.01
2023-10-05T03:48:16.260Z,80.88
2023-10-05T03:49:23.109Z,80.88
2023-10-05T03:50:26.316Z,80.89
2023-10-05T03:51:32.653Z,81.11
2023-10-05T03:52:35.742Z,81.27
2023-10-05T03:53:38.368Z,80.78
2023-10-05T03:54:40.892Z,80.78
2023-10-05T03:55:43.489Z,80.85
2023-10-05T03:56:47.624Z,81.17
2023-10-05T03:57:51.265Z,80.88
2023-10-05T03:58:55.584Z,80.65
2023-10-05T04:00:01.527Z,80.72
2023-10-05T04:01:18.757Z,80.46
2023-10-05T04:02:21.940Z,80.25
2023-10-05T04:03:26.776Z,80.40
2023-10-05T04:04:35.081Z,79.94
2023-10-05T04:05:41.403Z,80.36
2023-10-05T04:06:46.023Z,80.83
2023-10-05T04:07:49.388Z,80.56
2023-10-05T04:08:58.148Z,80.57
2023-10-05T04:10:03.527Z,80.46
2023-10-05T04:11:06.218Z,80.49
2023-10-05T04:12:11.638Z,81.02
2023-10-05T04:13:25.469Z,80.91
2023-10-05T04:14:29.968Z,81.29
2023-10-05T04:15:33.097Z,81.04
2023-10-05T04:16:36.067Z,80.76
2023-10-05T04:17:41.794Z,80.23
2023-10-05T04:18:48.242Z,81.42
2023-10-05T04:20:58.496Z,80.30
2023-10-05T04:22:01.228Z,80.48
2023-10-05T04:23:04.609Z,80.22
2023-10-05T04:24:07.680Z,79.92
2023-10-05T04:25:10.473Z,80.11
2023-10-05T04:26:13.165Z,80.23
2023-10-05T04:27:19.377Z,80.32
2023-10-05T04:28:42.014Z,79.98
2023-10-05T04:29:44.660Z,80.28
2023-10-05T04:30:47.387Z,79.97
2023-10-05T04:31:50.142Z,79.37
2023-10-05T04:32:53.805Z,79.01
2023-10-05T04:33:57.562Z,78.83
2023-10-05T04:35:02.332Z,79.35
2023-10-05T04:36:06.289Z,79.12
2023-10-05T04:37:08.961Z,78.47
2023-10-05T04:38:12.260Z,79.75
2023-10-05T04:39:23.083Z,78.87
2023-10-05T04:40:26.354Z,77.61
2023-10-05T04:41:34.918Z,77.45
2023-10-05T04:42:37.526Z,76.85
2023-10-05T04:43:41.649Z,76.62
2023-10-05T04:44:47.116Z,76.76
2023-10-05T04:45:51.281Z,77.68
2023-10-05T04:46:54.505Z,77.35
2023-10-05T04:48:00.752Z,76.71
2023-10-05T04:49:14.026Z,76.52
2023-10-05T04:50:18.433Z,76.18
2023-10-05T04:51:21.661Z,76.06
2023-10-05T04:52:25.252Z,75.90
2023-10-05T04:53:29.014Z,76.44
2023-10-05T04:54:36.197Z,76.84
2023-10-05T04:55:43.931Z,77.08
2023-10-05T04:57:04.600Z,76.98
2023-10-05T04:58:22.258Z,78.40
2023-10-05T04:59:38.552Z,80.32
2023-10-05T05:00:47.585Z,80.75
2023-10-05T05:01:53.213Z,80.43
2023-10-05T05:03:06.938Z,82.10
2023-10-05T05:04:28.939Z,80.96
2023-10-05T05:05:58.561Z,79.11
2023-10-05T05:07:02.453Z,83.77
2023-10-05T05:08:06.900Z,83.35
2023-10-05T05:09:13.517Z,84.65
2023-10-05T05:10:21.934Z,85.74
2023-10-05T05:11:24.675Z,84.93
2023-10-05T05:12:28.105Z,83.29
2023-10-05T05:13:31.159Z,88.70
2023-10-05T05:14:48.394Z,85.16
2023-10-05T05:15:51.960Z,83.23
2023-10-05T05:16:55.032Z,82.40
2023-10-05T05:17:59.803Z,81.83
2023-10-05T05:19:03.231Z,82.50
2023-10-05T05:20:12.758Z,84.56
2023-10-05T05:21:16.184Z,86.53
2023-10-05T05:22:22.432Z,87.38
2023-10-05T05:23:25.456Z,85.06
2023-10-05T05:24:30.767Z,83.33
2023-10-05T05:25:33.617Z,79.46
2023-10-05T05:26:36.260Z,81.91
2023-10-05T05:27:39.107Z,84.06
2023-10-05T05:28:44.686Z,82.77
2023-10-05T05:29:48.279Z,77.82
2023-10-05T05:30:51.847Z,76.19
2023-10-05T05:31:54.849Z,75.44
2023-10-05T05:33:00.718Z,75.67
2023-10-05T05:34:03.688Z,72.88
2023-10-05T05:35:09.617Z,73.86
2023-10-05T05:36:14.732Z,73.00
2023-10-05T05:37:31.578Z,73.74
2023-10-05T05:38:34.690Z,71.51
2023-10-05T05:39:40.419Z,67.83
2023-10-05T05:40:44.625Z,67.65
2023-10-05T05:41:57.238Z,68.11
2023-10-05T05:43:00.007Z,67.67
2023-10-05T05:44:04.388Z,67.97
2023-10-05T05:45:16.949Z,67.38
2023-10-05T05:46:19.589Z,66.76
2023-10-05T05:47:22.225Z,67.10
2023-10-05T05:48:25.683Z,66.51
2023-10-05T05:49:29.123Z,67.00
2023-10-05T05:50:31.927Z,67.65
2023-10-05T05:51:34.680Z,66.98
2023-10-05T05:52:38.241Z,67.04
2023-10-05T05:53:43.142Z,67.45
2023-10-05T05:54:48.819Z,68.92
2023-10-05T05:55:56.710Z,73.25
2023-10-05T05:56:59.418Z,76.08
2023-10-05T05:58:02.100Z,71.99
2023-10-05T05:59:05.255Z,67.46
2023-10-05T06:00:13.031Z,66.01
2023-10-05T06:01:15.988Z,65.99
2023-10-05T06:02:18.778Z,67.43
2023-10-05T06:03:21.967Z,67.18
2023-10-05T06:04:26.771Z,63.92
2023-10-05T06:05:29.681Z,64.00
2023-10-05T06:06:32.326Z,64.87
2023-10-05T06:07:35.047Z,63.31
2023-10-05T06:08:37.872Z,61.74
2023-10-05T06:09:44.224Z,59.12
2023-10-05T06:10:48.330Z,58.93
2023-10-05T06:11:51.006Z,61.90
2023-10-05T06:12:53.622Z,61.54
2023-10-05T06:13:56.151Z,62.52
2023-10-05T06:14:58.916Z,62.15
2023-10-05T06:16:01.660Z,62.76
2023-10-05T06:17:04.787Z,56.84
2023-10-05T06:18:08.486Z,56.48
2023-10-05T06:19:11.493Z,56.44
2023-10-05T06:20:17.270Z,55.23
2023-10-05T06:21:20.575Z,54.38
2023-10-05T06:22:23.525Z,53.33
2023-10-05T06:23:26.088Z,57.03
2023-10-05T06:24:28.869Z,53.86
2023-10-05T06:25:32.795Z,56.11
2023-10-05T06:26:35.718Z,56.84
2023-10-05T06:27:38.386Z,55.32
2023-10-05T06:28:41.164Z,54.40
2023-10-05T06:29:43.876Z,50.82
2023-10-05T06:30:46.646Z,49.09
2023-10-05T06:31:49.281Z,47.80
2023-10-05T06:32:54.766Z,48.21
2023-10-05T06:33:57.572Z,48.19
2023-10-05T06:35:00.172Z,48.64
2023-10-05T06:36:06.119Z,49.12
2023-10-05T06:37:08.725Z,47.89
2023-10-05T06:38:11.380Z,49.00
2023-10-05T06:39:24.741Z,48.47
2023-10-05T06:40:30.965Z,47.46
2023-10-05T06:41:35.422Z,47.28
2023-10-05T06:42:41.235Z,48.41
2023-10-05T06:43:43.840Z,50.93
2023-10-05T06:44:46.774Z,47.78
2023-10-05T06:45:50.272Z,49.21
2023-10-05T06:46:54.646Z,49.48
2023-10-05T06:47:57.823Z,49.29
2023-10-05T06:49:02.335Z,48.60
2023-10-05T06:50:10.086Z,49.31
2023-10-05T06:51:14.554Z,46.71
2023-10-05T06:52:18.317Z,48.79
2023-10-05T06:53:21.066Z,48.74
2023-10-05T06:54:23.723Z,47.99
2023-10-05T06:55:26.498Z,47.35
2023-10-05T06:56:29.264Z,46.80
2023-10-05T06:57:31.852Z,47.25
2023-10-05T06:58:34.701Z,46.37
2023-10-05T06:59:39.239Z,46.96
2023-10-05T07:00:41.826Z,46.21
2023-10-05T07:01:44.624Z,45.00
2023-10-05T07:02:52.477Z,44.86
2023-10-05T07:03:57.207Z,45.43
2023-10-05T07:05:00.307Z,45.99
2023-10-05T07:06:05.987Z,44.42
2023-10-05T07:07:08.730Z,42.74
2023-10-05T07:08:13.644Z,46.17
2023-10-05T07:09:16.249Z,45.22
2023-10-05T07:10:23.332Z,45.19
2023-10-05T07:11:25.994Z,44.32
2023-10-05T07:12:28.712Z,41.40
2023-10-05T07:13:31.416Z,43.92
2023-10-05T07:14:34.613Z,42.06
2023-10-05T07:15:37.392Z,43.39
2023-10-05T07:16:39.955Z,45.88
2023-10-05T07:17:43.523Z,47.15
2023-10-05T07:18:46.661Z,47.01
2023-10-05T07:19:51.131Z,43.93
2023-10-05T07:20:53.804Z,45.06
2023-10-05T07:21:56.439Z,45.35
2023-10-05T07:23:00.410Z,45.64
2023-10-05T07:24:03.043Z,45.61
2023-10-05T07:25:07.986Z,44.99
2023-10-05T07:26:10.873Z,43.71
2023-10-05T07:27:13.481Z,41.40
2023-10-05T07:28:16.398Z,41.07
2023-10-05T07:29:30.716Z,41.62
2023-10-05T07:30:34.746Z,41.58
2023-10-05T07:31:37.400Z,40.67
2023-10-05T07:32:42.032Z,40.57
2023-10-05T07:33:44.863Z,39.56
2023-10-05T07:34:49.672Z,38.10
2023-10-05T07:35:55.124Z,37.64
2023-10-05T07:36:58.710Z,39.01
2023-10-05T07:38:02.709Z,38.51
2023-10-05T07:39:06.228Z,39.71
2023-10-05T07:40:10.202Z,37.99
2023-10-05T07:41:13.011Z,37.69
2023-10-05T07:42:15.648Z,40.83
2023-10-05T07:43:18.308Z,40.16
2023-10-05T07:44:21.282Z,38.19
2023-10-05T07:45:24.012Z,37.46
2023-10-05T07:46:26.961Z,36.15
2023-10-05T07:47:29.801Z,36.25
2023-10-05T07:48:32.807Z,40.07
2023-10-05T07:49:36.069Z,37.92
2023-10-05T07:50:39.453Z,39.29
2023-10-05T07:51:43.289Z,39.19
2023-10-05T07:52:46.379Z,39.42
2023-10-05T07:53:49.101Z,41.13
2023-10-05T07:54:53.088Z,38.04
2023-10-05T07:55:55.879Z,38.90
2023-10-05T07:56:58.504Z,38.05
2023-10-05T07:58:03.656Z,36.06
2023-10-05T07:59:08.051Z,35.08
2023-10-05T08:00:15.008Z,34.80
2023-10-05T08:01:19.798Z,35.12
2023-10-05T08:02:22.618Z,34.29
2023-10-05T08:03:25.358Z,35.22
2023-10-05T08:04:29.056Z,34.73
2023-10-05T08:05:32.300Z,35.85
2023-10-05T08:06:34.962Z,36.85
2023-10-05T08:07:37.597Z,36.37
2023-10-05T08:08:42.396Z,36.80
2023-10-05T08:09:44.993Z,34.16
2023-10-05T08:10:47.924Z,35.29
2023-10-05T08:11:54.781Z,37.62
2023-10-05T08:12:57.350Z,35.51
2023-10-05T08:14:00.010Z,34.50
2023-10-05T08:15:03.167Z,34.83
2023-10-05T08:16:09.111Z,36.40
2023-10-05T08:17:13.722Z,35.10
2023-10-05T08:18:16.278Z,36.95
2023-10-05T08:19:22.422Z,33.95
2023-10-05T08:20:28.713Z,34.05
2023-10-05T08:21:31.614Z,33.23
2023-10-05T08:22:37.897Z,31.29
2023-10-05T08:23:41.226Z,31.59
2023-10-05T08:24:44.657Z,32.68
2023-10-05T08:25:47.907Z,34.56
2023-10-05T08:26:55.022Z,33.25
2023-10-05T08:27:57.797Z,34.86
2023-10-05T08:29:00.876Z,32.31
2023-10-05T08:30:04.735Z,32.75
2023-10-05T08:31:08.841Z,31.77
2023-10-05T08:32:15.632Z,33.54
2023-10-05T08:33:20.715Z,33.39
2023-10-05T08:34:23.671Z,33.77
2023-10-05T08:35:27.506Z,30.67
2023-10-05T08:36:31.892Z,30.80
2023-10-05T08:37:45.783Z,29.13
2023-10-05T08:38:53.783Z,27.78
2023-10-05T08:39:57.624Z,29.37
2023-10-05T08:41:03.178Z,30.13
2023-10-05T08:42:08.896Z,33.18
2023-10-05T08:43:12.263Z,32.19
2023-10-05T08:44:27.659Z,33.22
2023-10-05T08:45:35.896Z,32.13
2023-10-05T08:46:43.534Z,31.20
2023-10-05T08:47:47.495Z,29.61
2023-10-05T08:48:50.970Z,31.88
2023-10-05T08:49:53.605Z,33.18
2023-10-05T08:51:22.509Z,30.67
2023-10-05T08:52:25.220Z,30.22
2023-10-05T08:53:29.212Z,29.04
2023-10-05T08:54:34.867Z,27.94
2023-10-05T08:55:38.943Z,27.97
2023-10-05T08:56:48.296Z,28.29
2023-10-05T08:57:53.934Z,26.86
2023-10-05T08:59:00.619Z,26.78
2023-10-05T09:00:07.789Z,26.76
2023-10-05T09:01:34.361Z,27.68
2023-10-05T09:02:38.349Z,28.51
2023-10-05T09:03:41.238Z,30.03
2023-10-05T09:05:08.861Z,32.39
2023-10-05T09:06:37.690Z,36.77
2023-10-05T09:07:40.462Z,33.49
2023-10-05T09:08:56.197Z,34.94
2023-10-05T09:09:59.142Z,36.37
2023-10-05T09:11:09.958Z,35.56
2023-10-05T09:12:36.317Z,37.11
2023-10-05T09:13:47.843Z,37.66
2023-10-05T09:15:10.527Z,33.33
2023-10-05T09:16:23.598Z,35.90
2023-10-05T09:17:26.459Z,34.37
2023-10-05T09:18:29.103Z,33.95
2023-10-05T09:19:34.748Z,36.01
2023-10-05T09:20:40.062Z,32.00
2023-10-05T09:22:07.052Z,30.88
2023-10-05T09:23:14.983Z,30.49
2023-10-05T09:24:22.746Z,28.90
2023-10-05T09:25:31.917Z,32.66
2023-10-05T09:26:40.605Z,30.99
2023-10-05T09:27:52.501Z,29.82
2023-10-05T09:29:15.384Z,29.22
2023-10-05T09:30:22.717Z,33.22
2023-10-05T09:31:43.412Z,31.36
2023-10-05T09:32:46.155Z,32.42
2023-10-05T09:34:05.172Z,31.77
2023-10-05T09:35:12.051Z,33.16
2023-10-05T09:36:20.862Z,34.79
2023-10-05T09:37:27.728Z,35.11
2023-10-05T09:38:33.037Z,35.37
2023-10-05T09:39:44.951Z,34.47
2023-10-05T09:40:55.215Z,35.53
2023-10-05T09:42:02.546Z,33.56
2023-10-05T09:43:07.157Z,35.35
2023-10-05T09:44:17.059Z,36.05
2023-10-05T09:45:23.770Z,32.29
2023-10-05T09:46:33.026Z,31.56
2023-10-05T09:47:37.199Z,34.83
2023-10-05T09:48:40.697Z,34.55
2023-10-05T09:49:46.704Z,33.61
2023-10-05T09:50:50.241Z,34.33
2023-10-05T09:51:55.365Z,34.08
2023-10-05T09:53:03.229Z,34.23
2023-10-05T09:54:11.708Z,34.48
2023-10-05T09:55:14.812Z,32.44
2023-10-05T09:56:33.066Z,33.96
2023-10-05T09:57:53.332Z,35.82
2023-10-05T09:59:00.276Z,34.03
2023-10-05T10:00:11.024Z,33.00
2023-10-05T10:01:23.232Z,33.42
2023-10-05T10:02:33.656Z,34.65
2023-10-05T10:03:38.175Z,34.52
2023-10-05T10:04:42.232Z,37.25
2023-10-05T10:06:11.417Z,34.20
2023-10-05T10:07:17.630Z,36.11
2023-10-05T10:08:25.058Z,33.95
2023-10-05T10:09:28.317Z,33.19
2023-10-05T10:10:31.357Z,34.74
2023-10-05T10:11:34.598Z,33.77
2023-10-05T10:12:42.196Z,34.71
2023-10-05T10:14:07.209Z,34.76
2023-10-05T10:15:36.333Z,35.62
2023-10-05T10:16:43.133Z,33.90
2023-10-05T10:18:04.701Z,34.70
2023-10-05T10:19:20.524Z,34.84
2023-10-05T10:20:39.199Z,31.67
2023-10-05T10:21:47.486Z,32.11
2023-10-05T10:22:54.220Z,32.80
2023-10-05T10:24:08.188Z,33.12
2023-10-05T10:25:43.009Z,31.41
2023-10-05T10:27:14.657Z,34.15
2023-10-05T10:28:41.303Z,34.09
2023-10-05T10:29:56.548Z,34.66
2023-10-05T10:31:22.901Z,34.43
2023-10-05T10:32:34.088Z,34.50
2023-10-05T10:33:36.924Z,33.05
2023-10-05T10:34:53.531Z,34.57
2023-10-05T10:36:01.084Z,33.75
2023-10-05T10:37:04.670Z,34.71
2023-10-05T10:38:11.378Z,33.79
2023-10-05T10:39:30.413Z,31.51
2023-10-05T10:40:34.127Z,32.51
2023-10-05T10:42:08.922Z,34.75
2023-10-05T10:43:14.458Z,34.28
2023-10-05T10:44:24.412Z,35.53
2023-10-05T10:45:30.665Z,34.32
2023-10-05T10:46:35.607Z,35.04
2023-10-05T10:47:47.023Z,36.24
2023-10-05T10:49:00.787Z,35.66
2023-10-05T10:50:16.802Z,36.60
2023-10-05T10:51:22.070Z,35.95
2023-10-05T10:52:32.570Z,37.17
2023-10-05T10:53:41.112Z,37.40
2023-10-05T10:54:52.167Z,36.60
2023-10-05T10:56:24.070Z,34.47
2023-10-05T10:57:26.761Z,36.59
2023-10-05T10:58:32.610Z,36.34
2023-10-05T10:59:42.400Z,35.59
2023-10-05T11:00:57.700Z,35.92
2023-10-05T11:02:11.987Z,36.67
2023-10-05T11:03:17.751Z,37.76
2023-10-05T11:04:50.319Z,36.41
2023-10-05T11:06:02.225Z,38.10
2023-10-05T11:07:10.647Z,36.47
2023-10-05T11:08:14.692Z,37.05
2023-10-05T11:09:17.576Z,36.30
2023-10-05T11:10:23.443Z,36.43
2023-10-05T11:11:26.932Z,38.01
2023-10-05T11:12:30.319Z,35.86
2023-10-05T11:13:37.523Z,35.66
2023-10-05T11:14:43.663Z,36.38
2023-10-05T11:15:59.948Z,37.33
2023-10-05T11:17:12.246Z,37.36
2023-10-05T11:18:19.708Z,36.56
2023-10-05T11:19:33.046Z,37.18
2023-10-05T11:20:37.963Z,37.05
2023-10-05T11:21:49.651Z,37.40
2023-10-05T11:23:04.794Z,37.77
2023-10-05T11:24:08.220Z,38.29
2023-10-05T11:25:16.293Z,37.89
2023-10-05T11:26:19.292Z,38.65
2023-10-05T11:27:24.418Z,39.01
2023-10-05T11:28:27.300Z,38.11
2023-10-05T11:29:31.952Z,39.47
2023-10-05T11:31:01.370Z,39.23
2023-10-05T11:32:40.900Z,39.07
2023-10-05T11:34:28.039Z,38.27
2023-10-05T11:35:18.209Z,38.76
2023-10-05T11:36:29.419Z,39.20
2023-10-05T11:37:34.222Z,38.12
2023-10-05T11:38:37.285Z,38.16
2023-10-05T11:39:41.495Z,38.26
2023-10-05T11:40:50.844Z,37.11
2023-10-05T11:41:57.881Z,38.16
2023-10-05T11:43:06.153Z,38.40
2023-10-05T11:44:13.357Z,38.95
2023-10-05T11:45:17.989Z,39.02
2023-10-05T11:46:27.853Z,39.14
2023-10-05T11:47:46.070Z,39.38
2023-10-05T11:48:57.526Z,39.75
2023-10-05T11:50:34.263Z,39.39
2023-10-05T11:51:43.662Z,39.68
2023-10-05T11:52:46.293Z,39.46
2023-10-05T11:53:51.850Z,39.42
2023-10-05T11:54:54.696Z,40.59
2023-10-05T11:55:57.396Z,40.39
2023-10-05T11:57:02.843Z,40.30
2023-10-05T11:58:06.437Z,39.91
2023-10-05T11:59:12.316Z,39.68
2023-10-05T12:00:18.178Z,40.24
2023-10-05T12:01:21.888Z,39.01
2023-10-05T12:02:24.935Z,38.82
2023-10-05T12:03:28.022Z,38.56
2023-10-05T12:04:31.074Z,37.72
2023-10-05T12:05:36.063Z,37.62
2023-10-05T12:06:40.824Z,39.38
2023-10-05T12:07:47.437Z,40.03
2023-10-05T12:08:55.086Z,39.59
2023-10-05T12:09:58.298Z,40.07
2023-10-05T12:11:00.950Z,40.09
2023-10-05T12:12:05.035Z,40.57
2023-10-05T12:13:07.683Z,40.37
2023-10-05T12:14:10.255Z,39.63
2023-10-05T12:15:18.646Z,39.31
2023-10-05T12:16:21.649Z,38.41
2023-10-05T12:17:24.403Z,39.59
2023-10-05T12:18:27.486Z,38.98
2023-10-05T12:19:30.511Z,40.42
2023-10-05T12:20:33.325Z,40.59
2023-10-05T12:21:35.990Z,40.40
2023-10-05T12:22:38.841Z,38.94
2023-10-05T12:23:41.472Z,40.39
2023-10-05T12:24:44.230Z,40.68
2023-10-05T12:25:47.208Z,40.50
2023-10-05T12:26:52.126Z,39.59
2023-10-05T12:27:54.820Z,40.04
2023-10-05T12:28:57.382Z,39.69
2023-10-05T12:30:00.905Z,39.00
2023-10-05T12:31:03.888Z,38.39
2023-10-05T12:32:11.289Z,37.91
2023-10-05T12:33:14.426Z,37.75
2023-10-05T12:35:24.397Z,37.13
2023-10-05T12:36:27.102Z,38.24
2023-10-05T12:37:31.046Z,37.85
2023-10-05T12:38:33.698Z,38.46
2023-10-05T12:39:36.283Z,37.56
2023-10-05T12:40:42.602Z,37.48
2023-10-05T12:41:47.895Z,37.66
2023-10-05T12:43:09.722Z,39.36
2023-10-05T12:44:16.558Z,40.60
2023-10-05T12:45:26.349Z,40.36
2023-10-05T12:46:34.674Z,39.56
2023-10-05T12:47:41.234Z,39.59
2023-10-05T12:48:45.467Z,40.13
2023-10-05T12:49:49.275Z,39.17
2023-10-05T12:50:52.055Z,39.26
2023-10-05T12:51:54.754Z,40.46
2023-10-05T12:53:01.048Z,40.16
2023-10-05T12:54:29.831Z,40.10
2023-10-05T12:55:33.676Z,39.63
2023-10-05T12:56:40.106Z,39.26
2023-10-05T12:57:45.425Z,39.97
2023-10-05T12:58:48.010Z,39.08
2023-10-05T12:59:51.424Z,38.91
2023-10-05T13:00:55.029Z,38.71
2023-10-05T13:02:03.777Z,38.91
2023-10-05T13:03:07.281Z,38.30
2023-10-05T13:04:11.324Z,39.34
2023-10-05T13:05:28.027Z,39.65
2023-10-05T13:06:33.858Z,39.09
2023-10-05T13:07:37.279Z,38.58
2023-10-05T13:08:44.967Z,39.47
2023-10-05T13:10:01.459Z,39.30
2023-10-05T13:11:04.954Z,38.56
2023-10-05T13:12:09.649Z,39.27
2023-10-05T13:13:18.925Z,39.34
2023-10-05T13:14:22.388Z,38.08
2023-10-05T13:15:32.723Z,38.42
2023-10-05T13:16:40.081Z,40.26
2023-10-05T13:17:47.355Z,41.42
2023-10-05T13:18:51.224Z,41.46
2023-10-05T13:19:53.957Z,39.97
2023-10-05T13:20:56.581Z,40.80
2023-10-05T13:21:59.158Z,39.30
2023-10-05T13:23:03.166Z,40.99
2023-10-05T13:24:07.802Z,40.47
2023-10-05T13:25:10.686Z,39.10
2023-10-05T13:26:17.809Z,38.46
2023-10-05T13:27:20.384Z,38.45
2023-10-05T13:28:27.862Z,38.42
2023-10-05T13:29:30.690Z,38.15
2023-10-05T13:30:42.181Z,38.04
2023-10-05T13:31:47.817Z,39.15
2023-10-05T13:32:59.140Z,38.65
2023-10-05T13:34:02.288Z,39.22
2023-10-05T13:35:11.477Z,39.25
2023-10-05T13:36:14.124Z,39.91
2023-10-05T13:37:20.959Z,39.59
2023-10-05T13:38:30.280Z,38.68
2023-10-05T13:39:35.769Z,38.81
2023-10-05T13:40:38.914Z,39.40
2023-10-05T13:41:47.861Z,39.31
2023-10-05T13:42:53.505Z,38.93
2023-10-05T13:43:56.939Z,38.59
2023-10-05T13:45:06.031Z,39.03
2023-10-05T13:46:17.762Z,39.08
2023-10-05T13:47:20.474Z,40.28
2023-10-05T13:48:24.013Z,39.69
2023-10-05T13:49:31.236Z,39.65
2023-10-05T13:50:35.876Z,39.52
2023-10-05T13:51:39.676Z,39.76
2023-10-05T13:52:46.902Z,39.86
2023-10-05T13:53:58.224Z,39.68
2023-10-05T13:55:01.021Z,39.51
2023-10-05T13:56:04.588Z,40.70
2023-10-05T13:57:08.470Z,41.27
2023-10-05T13:58:15.873Z,40.14
2023-10-05T13:59:18.748Z,40.29
2023-10-05T14:00:24.834Z,40.52
2023-10-05T14:02:00.489Z,40.87
2023-10-05T14:03:04.532Z,41.81
2023-10-05T14:04:10.576Z,41.67
2023-10-05T14:05:13.792Z,41.53
2023-10-05T14:06:17.631Z,41.23
2023-10-05T14:07:21.340Z,41.52
2023-10-05T14:08:24.993Z,40.34
2023-10-05T14:09:30.169Z,39.95
2023-10-05T14:10:33.031Z,40.18
2023-10-05T14:11:38.510Z,40.26
2023-10-05T14:12:41.239Z,40.07
2023-10-05T14:13:44.936Z,39.30
2023-10-05T14:14:48.351Z,39.53
2023-10-05T14:15:50.888Z,39.08
2023-10-05T14:17:00.292Z,38.82
2023-10-05T14:18:10.304Z,38.90
2023-10-05T14:19:13.164Z,39.14
2023-10-05T14:20:17.372Z,38.94
2023-10-05T14:21:23.076Z,39.18